sensor_id;sensor_type;location;lat;lon;timestamp;P1;durP1;ratioP1;P2;durP2;ratioP2
32106;SDS011;18622;51.998;10.440;2022-10-16T05:02:01;11.63;;;3.95;;
32106;SDS011;18622;51.998;10.440;2022-10-16T05:04:29;18.33;;;4.10;;
32106;SDS011;18622;51.998;10.440;2022-10-16T05:06:57;8.37;;;3.90;;
32106;SDS011;18622;51.998;10.440;2022-10-16T05:09:24;12.57;;;4.00;;
32106;SDS011;18622;51.998;10.440;2022-10-16T05:11:52;10.07;;;3.73;;
32106;SDS011;18622;51.998;10.440;2022-10-16T05:14:20;7.90;;;3.20;;
32106;SDS011;18622;51.998;10.440;2022-10-16T05:19:17;8.35;;;3.30;;
32106;SDS011;18622;51.998;10.440;2022-10-16T05:21:44;8.73;;;3.20;;
32106;SDS011;18622;51.998;10.440;2022-10-16T05:24:12;5.63;;;3.20;;
32106;SDS011;18622;51.998;10.440;2022-10-16T05:26:40;7.63;;;3.10;;
32106;SDS011;18622;51.998;10.440;2022-10-16T05:29:08;5.33;;;3.10;;
32106;SDS011;18622;51.998;10.440;2022-10-16T05:31:36;8.03;;;2.97;;
32106;SDS011;18622;51.998;10.440;2022-10-16T05:34:04;6.07;;;2.43;;
32106;SDS011;18622;51.998;10.440;2022-10-16T05:36:32;4.73;;;2.70;;
32106;SDS011;18622;51.998;10.440;2022-10-16T05:39:00;2.87;;;2.03;;
32106;SDS011;18622;51.998;10.440;2022-10-16T05:41:28;4.07;;;2.40;;
32106;SDS011;18622;51.998;10.440;2022-10-16T05:43:55;3.90;;;2.50;;
32106;SDS011;18622;51.998;10.440;2022-10-16T05:46:23;4.53;;;2.17;;
32106;SDS011;18622;51.998;10.440;2022-10-16T05:48:51;6.30;;;1.73;;
32106;SDS011;18622;51.998;10.440;2022-10-16T05:51:19;2.20;;;1.90;;
32106;SDS011;18622;51.998;10.440;2022-10-16T05:53:47;2.13;;;1.50;;
32106;SDS011;18622;51.998;10.440;2022-10-16T05:56:15;3.53;;;1.73;;
32106;SDS011;18622;51.998;10.440;2022-10-16T05:58:43;3.87;;;1.80;;
32106;SDS011;18622;51.998;10.440;2022-10-16T06:01:12;2.83;;;2.13;;
32106;SDS011;18622;51.998;10.440;2022-10-16T06:03:44;3.57;;;1.70;;
32106;SDS011;18622;51.998;10.440;2022-10-16T06:06:13;1.40;;;1.30;;
32106;SDS011;18622;51.998;10.440;2022-10-16T06:08:43;3.27;;;1.60;;
32106;SDS011;18622;51.998;10.440;2022-10-16T06:11:12;1.35;;;1.25;;
32106;SDS011;18622;51.998;10.440;2022-10-16T06:13:50;4.33;;;1.17;;
32106;SDS011;18622;51.998;10.440;2022-10-16T06:16:19;2.07;;;1.60;;
32106;SDS011;18622;51.998;10.440;2022-10-16T06:18:46;3.35;;;1.32;;
32106;SDS011;18622;51.998;10.440;2022-10-16T06:21:16;2.10;;;1.57;;
32106;SDS011;18622;51.998;10.440;2022-10-16T06:23:45;3.45;;;1.10;;
32106;SDS011;18622;51.998;10.440;2022-10-16T06:26:14;3.80;;;1.00;;
32106;SDS011;18622;51.998;10.440;2022-10-16T06:28:43;2.90;;;0.95;;
32106;SDS011;18622;51.998;10.440;2022-10-16T06:31:12;1.70;;;1.00;;
32106;SDS011;18622;51.998;10.440;2022-10-16T06:33:40;1.45;;;0.80;;
32106;SDS011;18622;51.998;10.440;2022-10-16T06:36:09;10.40;;;5.83;;
32106;SDS011;18622;51.998;10.440;2022-10-16T06:38:38;13.30;;;10.63;;
32106;SDS011;18622;51.998;10.440;2022-10-16T06:41:06;5.93;;;4.73;;
32106;SDS011;18622;51.998;10.440;2022-10-16T06:43:36;5.57;;;1.10;;
32106;SDS011;18622;51.998;10.440;2022-10-16T06:46:05;0.73;;;0.70;;
32106;SDS011;18622;51.998;10.440;2022-10-16T06:48:34;2.02;;;1.00;;
32106;SDS011;18622;51.998;10.440;2022-10-16T06:53:40;5.90;;;1.30;;
32106;SDS011;18622;51.998;10.440;2022-10-16T06:56:13;6.28;;;0.70;;
32106;SDS011;18622;51.998;10.440;2022-10-16T06:58:43;3.87;;;1.20;;
32106;SDS011;18622;51.998;10.440;2022-10-16T07:01:12;1.03;;;0.93;;
32106;SDS011;18622;51.998;10.440;2022-10-16T07:03:41;2.77;;;0.78;;
32106;SDS011;18622;51.998;10.440;2022-10-16T07:08:39;0.85;;;0.78;;
32106;SDS011;18622;51.998;10.440;2022-10-16T07:11:10;2.53;;;1.00;;
32106;SDS011;18622;51.998;10.440;2022-10-16T07:13:40;8.05;;;1.30;;
32106;SDS011;18622;51.998;10.440;2022-10-16T07:16:11;2.87;;;0.90;;
32106;SDS011;18622;51.998;10.440;2022-10-16T07:18:43;2.23;;;0.73;;
32106;SDS011;18622;51.998;10.440;2022-10-16T07:21:13;4.15;;;1.00;;
32106;SDS011;18622;51.998;10.440;2022-10-16T07:23:52;1.60;;;0.77;;
32106;SDS011;18622;51.998;10.440;2022-10-16T07:26:22;1.67;;;0.50;;
32106;SDS011;18622;51.998;10.440;2022-10-16T07:28:50;1.12;;;0.60;;
32106;SDS011;18622;51.998;10.440;2022-10-16T07:31:19;1.63;;;0.53;;
32106;SDS011;18622;51.998;10.440;2022-10-16T07:33:47;1.07;;;0.70;;
32106;SDS011;18622;51.998;10.440;2022-10-16T07:36:16;1.42;;;0.80;;
32106;SDS011;18622;51.998;10.440;2022-10-16T07:38:45;2.17;;;0.70;;
32106;SDS011;18622;51.998;10.440;2022-10-16T07:41:15;4.43;;;1.43;;
32106;SDS011;18622;51.998;10.440;2022-10-16T07:43:47;3.72;;;0.70;;
32106;SDS011;18622;51.998;10.440;2022-10-16T07:46:16;0.90;;;0.55;;
32106;SDS011;18622;51.998;10.440;2022-10-16T07:48:45;1.35;;;0.80;;
32106;SDS011;18622;51.998;10.440;2022-10-16T07:51:14;8.13;;;1.07;;
32106;SDS011;18622;51.998;10.440;2022-10-16T07:53:44;3.22;;;2.90;;
32106;SDS011;18622;51.998;10.440;2022-10-16T07:56:12;5.78;;;1.47;;
32106;SDS011;18622;51.998;10.440;2022-10-16T07:58:40;16.95;;;10.55;;
32106;SDS011;18622;51.998;10.440;2022-10-16T08:01:09;6.87;;;2.90;;
32106;SDS011;18622;51.998;10.440;2022-10-16T08:03:43;17.48;;;9.90;;
32106;SDS011;18622;51.998;10.440;2022-10-16T08:06:12;2.17;;;1.55;;
32106;SDS011;18622;51.998;10.440;2022-10-16T08:08:40;3.03;;;1.33;;
32106;SDS011;18622;51.998;10.440;2022-10-16T08:11:07;5.80;;;1.17;;
32106;SDS011;18622;51.998;10.440;2022-10-16T08:13:36;5.17;;;1.70;;
32106;SDS011;18622;51.998;10.440;2022-10-16T08:16:04;3.33;;;1.25;;
32106;SDS011;18622;51.998;10.440;2022-10-16T08:18:42;1.20;;;1.10;;
32106;SDS011;18622;51.998;10.440;2022-10-16T08:21:15;1.27;;;0.57;;
32106;SDS011;18622;51.998;10.440;2022-10-16T08:23:41;1.95;;;0.70;;
32106;SDS011;18622;51.998;10.440;2022-10-16T08:26:10;3.08;;;0.50;;
32106;SDS011;18622;51.998;10.440;2022-10-16T08:28:38;2.85;;;0.55;;
32106;SDS011;18622;51.998;10.440;2022-10-16T08:31:10;2.10;;;0.43;;
32106;SDS011;18622;51.998;10.440;2022-10-16T08:33:42;0.97;;;0.70;;
32106;SDS011;18622;51.998;10.440;2022-10-16T08:36:12;0.57;;;0.50;;
32106;SDS011;18622;51.998;10.440;2022-10-16T08:38:41;1.23;;;0.50;;
32106;SDS011;18622;51.998;10.440;2022-10-16T08:49:58;4.97;;;0.62;;
32106;SDS011;18622;51.998;10.440;2022-10-16T08:52:22;1.27;;;0.43;;
32106;SDS011;18622;51.998;10.440;2022-10-16T08:54:53;1.53;;;0.60;;
32106;SDS011;18622;51.998;10.440;2022-10-16T08:57:22;2.25;;;0.50;;
32106;SDS011;18622;51.998;10.440;2022-10-16T08:59:52;5.35;;;0.40;;
32106;SDS011;18622;51.998;10.440;2022-10-16T09:02:40;1.73;;;0.43;;
32106;SDS011;18622;51.998;10.440;2022-10-16T09:05:18;2.00;;;0.40;;
32106;SDS011;18622;51.998;10.440;2022-10-16T09:08:26;6.10;;;0.90;;
32106;SDS011;18622;51.998;10.440;2022-10-16T09:11:22;1.23;;;0.40;;
32106;SDS011;18622;51.998;10.440;2022-10-16T09:14:01;2.07;;;0.40;;
32106;SDS011;18622;51.998;10.440;2022-10-16T09:16:38;3.53;;;0.40;;
32106;SDS011;18622;51.998;10.440;2022-10-16T09:21:41;1.27;;;0.50;;
32106;SDS011;18622;51.998;10.440;2022-10-16T09:24:12;0.50;;;0.42;;
32106;SDS011;18622;51.998;10.440;2022-10-16T09:26:49;1.73;;;0.30;;
32106;SDS011;18622;51.998;10.440;2022-10-16T09:29:19;2.23;;;0.60;;
32106;SDS011;18622;51.998;10.440;2022-10-16T09:31:50;3.03;;;1.00;;
32106;SDS011;18622;51.998;10.440;2022-10-16T09:34:23;0.65;;;0.40;;
32106;SDS011;18622;51.998;10.440;2022-10-16T09:36:50;1.92;;;0.72;;
32106;SDS011;18622;51.998;10.440;2022-10-16T09:39:18;2.70;;;0.30;;
32106;SDS011;18622;51.998;10.440;2022-10-16T09:41:46;2.43;;;0.60;;
32106;SDS011;18622;51.998;10.440;2022-10-16T09:44:35;1.53;;;0.40;;
32106;SDS011;18622;51.998;10.440;2022-10-16T09:46:48;2.13;;;0.83;;
32106;SDS011;18622;51.998;10.440;2022-10-16T09:49:21;0.63;;;0.60;;
32106;SDS011;18622;51.998;10.440;2022-10-16T09:51:50;1.70;;;0.50;;
32106;SDS011;18622;51.998;10.440;2022-10-16T09:57:10;5.83;;;0.40;;
32106;SDS011;18622;51.998;10.440;2022-10-16T10:02:10;1.45;;;0.50;;
32106;SDS011;18622;51.998;10.440;2022-10-16T10:04:40;1.32;;;0.50;;
32106;SDS011;18622;51.998;10.440;2022-10-16T10:07:17;0.40;;;0.40;;
32106;SDS011;18622;51.998;10.440;2022-10-16T10:09:46;5.87;;;0.70;;
32106;SDS011;18622;51.998;10.440;2022-10-16T10:12:18;2.30;;;0.70;;
32106;SDS011;18622;51.998;10.440;2022-10-16T10:14:58;0.55;;;0.37;;
32106;SDS011;18622;51.998;10.440;2022-10-16T10:17:29;2.25;;;0.55;;
32106;SDS011;18622;51.998;10.440;2022-10-16T10:20:01;1.80;;;0.57;;
32106;SDS011;18622;51.998;10.440;2022-10-16T10:22:47;0.50;;;0.37;;
32106;SDS011;18622;51.998;10.440;2022-10-16T10:26:03;2.43;;;0.60;;
32106;SDS011;18622;51.998;10.440;2022-10-16T10:30:42;0.53;;;0.45;;
32106;SDS011;18622;51.998;10.440;2022-10-16T10:36:04;0.73;;;0.40;;
32106;SDS011;18622;51.998;10.440;2022-10-16T10:38:51;1.20;;;1.10;;
32106;SDS011;18622;51.998;10.440;2022-10-16T10:44:28;2.00;;;0.70;;
32106;SDS011;18622;51.998;10.440;2022-10-16T10:46:58;0.90;;;0.67;;
32106;SDS011;18622;51.998;10.440;2022-10-16T10:52:34;0.60;;;0.50;;
32106;SDS011;18622;51.998;10.440;2022-10-16T11:00:51;6.12;;;0.72;;
32106;SDS011;18622;51.998;10.440;2022-10-16T11:06:19;2.97;;;1.00;;
32106;SDS011;18622;51.998;10.440;2022-10-16T11:11:44;3.43;;;1.03;;
32106;SDS011;18622;51.998;10.440;2022-10-16T11:14:18;2.72;;;0.80;;
32106;SDS011;18622;51.998;10.440;2022-10-16T11:21:55;2.62;;;1.85;;
32106;SDS011;18622;51.998;10.440;2022-10-16T11:27:07;2.30;;;0.70;;
32106;SDS011;18622;51.998;10.440;2022-10-16T11:29:35;1.85;;;0.70;;
32106;SDS011;18622;51.998;10.440;2022-10-16T11:32:14;3.85;;;0.60;;
32106;SDS011;18622;51.998;10.440;2022-10-16T11:34:44;1.12;;;0.72;;
32106;SDS011;18622;51.998;10.440;2022-10-16T11:37:12;2.07;;;1.40;;
32106;SDS011;18622;51.998;10.440;2022-10-16T11:39:48;2.77;;;1.40;;
32106;SDS011;18622;51.998;10.440;2022-10-16T11:42:19;1.50;;;1.00;;
32106;SDS011;18622;51.998;10.440;2022-10-16T11:47:40;3.37;;;0.42;;
32106;SDS011;18622;51.998;10.440;2022-10-16T11:50:29;3.72;;;0.70;;
32106;SDS011;18622;51.998;10.440;2022-10-16T11:53:24;4.07;;;0.70;;
32106;SDS011;18622;51.998;10.440;2022-10-16T11:55:54;3.40;;;0.63;;
32106;SDS011;18622;51.998;10.440;2022-10-16T11:58:26;2.50;;;0.43;;
32106;SDS011;18622;51.998;10.440;2022-10-16T12:01:15;2.00;;;0.60;;
32106;SDS011;18622;51.998;10.440;2022-10-16T12:09:20;1.22;;;1.12;;
32106;SDS011;18622;51.998;10.440;2022-10-16T12:11:42;2.10;;;0.90;;
32106;SDS011;18622;51.998;10.440;2022-10-16T12:16:51;3.03;;;2.03;;
32106;SDS011;18622;51.998;10.440;2022-10-16T12:19:24;3.70;;;0.77;;
32106;SDS011;18622;51.998;10.440;2022-10-16T12:21:56;2.07;;;1.53;;
32106;SDS011;18622;51.998;10.440;2022-10-16T12:24:37;3.42;;;0.98;;
32106;SDS011;18622;51.998;10.440;2022-10-16T12:29:58;3.00;;;0.57;;
32106;SDS011;18622;51.998;10.440;2022-10-16T12:32:36;7.47;;;3.67;;
32106;SDS011;18622;51.998;10.440;2022-10-16T12:35:06;1.70;;;0.87;;
32106;SDS011;18622;51.998;10.440;2022-10-16T12:37:46;1.23;;;0.63;;
32106;SDS011;18622;51.998;10.440;2022-10-16T12:40:23;3.43;;;1.20;;
32106;SDS011;18622;51.998;10.440;2022-10-16T12:42:57;6.90;;;3.90;;
32106;SDS011;18622;51.998;10.440;2022-10-16T12:45:26;3.37;;;1.87;;
32106;SDS011;18622;51.998;10.440;2022-10-16T12:47:57;2.40;;;1.20;;
32106;SDS011;18622;51.998;10.440;2022-10-16T12:53:25;2.87;;;0.60;;
32106;SDS011;18622;51.998;10.440;2022-10-16T12:56:09;2.40;;;0.60;;
32106;SDS011;18622;51.998;10.440;2022-10-16T13:04:00;2.97;;;0.70;;
32106;SDS011;18622;51.998;10.440;2022-10-16T13:09:05;1.80;;;0.60;;
32106;SDS011;18622;51.998;10.440;2022-10-16T13:11:39;5.50;;;1.00;;
32106;SDS011;18622;51.998;10.440;2022-10-16T13:22:51;0.97;;;0.50;;
32106;SDS011;18622;51.998;10.440;2022-10-16T13:25:47;0.60;;;0.60;;
32106;SDS011;18622;51.998;10.440;2022-10-16T13:28:19;1.63;;;0.80;;
32106;SDS011;18622;51.998;10.440;2022-10-16T13:30:55;2.62;;;0.82;;
32106;SDS011;18622;51.998;10.440;2022-10-16T13:33:37;1.40;;;0.60;;
32106;SDS011;18622;51.998;10.440;2022-10-16T13:36:24;0.93;;;0.60;;
32106;SDS011;18622;51.998;10.440;2022-10-16T13:38:59;1.47;;;0.90;;
32106;SDS011;18622;51.998;10.440;2022-10-16T13:41:30;2.20;;;0.50;;
32106;SDS011;18622;51.998;10.440;2022-10-16T13:43:57;1.47;;;0.60;;
32106;SDS011;18622;51.998;10.440;2022-10-16T13:46:25;2.50;;;0.60;;
32106;SDS011;18622;51.998;10.440;2022-10-16T13:49:00;1.03;;;0.60;;
32106;SDS011;18622;51.998;10.440;2022-10-16T13:51:32;2.85;;;0.50;;
32106;SDS011;18622;51.998;10.440;2022-10-16T13:54:00;1.30;;;0.57;;
32106;SDS011;18622;51.998;10.440;2022-10-16T13:56:29;4.70;;;1.27;;
32106;SDS011;18622;51.998;10.440;2022-10-16T13:58:59;5.62;;;0.65;;
32106;SDS011;18622;51.998;10.440;2022-10-16T14:01:35;1.02;;;0.50;;
32106;SDS011;18622;51.998;10.440;2022-10-16T14:04:09;1.30;;;0.85;;
32106;SDS011;18622;51.998;10.440;2022-10-16T14:06:42;1.72;;;0.75;;
32106;SDS011;18622;51.998;10.440;2022-10-16T14:09:18;1.85;;;0.60;;
32106;SDS011;18622;51.998;10.440;2022-10-16T14:11:53;5.20;;;0.60;;
32106;SDS011;18622;51.998;10.440;2022-10-16T14:14:23;2.77;;;0.60;;
32106;SDS011;18622;51.998;10.440;2022-10-16T14:19:26;1.47;;;0.70;;
32106;SDS011;18622;51.998;10.440;2022-10-16T14:21:56;4.93;;;1.13;;
32106;SDS011;18622;51.998;10.440;2022-10-16T14:24:26;1.05;;;0.50;;
32106;SDS011;18622;51.998;10.440;2022-10-16T14:26:56;7.62;;;2.05;;
32106;SDS011;18622;51.998;10.440;2022-10-16T14:29:25;4.37;;;1.80;;
32106;SDS011;18622;51.998;10.440;2022-10-16T14:34:36;1.50;;;0.53;;
32106;SDS011;18622;51.998;10.440;2022-10-16T14:37:14;4.90;;;2.97;;
32106;SDS011;18622;51.998;10.440;2022-10-16T14:39:52;2.07;;;1.30;;
32106;SDS011;18622;51.998;10.440;2022-10-16T14:42:22;6.97;;;3.70;;
32106;SDS011;18622;51.998;10.440;2022-10-16T14:44:53;2.27;;;1.20;;
32106;SDS011;18622;51.998;10.440;2022-10-16T14:47:23;1.30;;;0.70;;
32106;SDS011;18622;51.998;10.440;2022-10-16T14:49:52;2.17;;;1.20;;
32106;SDS011;18622;51.998;10.440;2022-10-16T14:52:23;1.42;;;0.60;;
32106;SDS011;18622;51.998;10.440;2022-10-16T14:54:51;5.77;;;0.97;;
32106;SDS011;18622;51.998;10.440;2022-10-16T14:57:22;4.10;;;0.97;;
32106;SDS011;18622;51.998;10.440;2022-10-16T14:59:51;0.50;;;0.50;;
32106;SDS011;18622;51.998;10.440;2022-10-16T15:04:56;0.70;;;0.40;;
32106;SDS011;18622;51.998;10.440;2022-10-16T15:07:25;2.63;;;0.80;;
32106;SDS011;18622;51.998;10.440;2022-10-16T15:09:52;3.03;;;0.60;;
32106;SDS011;18622;51.998;10.440;2022-10-16T15:12:22;0.40;;;0.40;;
32106;SDS011;18622;51.998;10.440;2022-10-16T15:14:49;3.33;;;0.70;;
32106;SDS011;18622;51.998;10.440;2022-10-16T15:17:17;3.93;;;0.77;;
32106;SDS011;18622;51.998;10.440;2022-10-16T15:19:47;3.37;;;0.77;;
32106;SDS011;18622;51.998;10.440;2022-10-16T15:24:41;9.18;;;6.15;;
32106;SDS011;18622;51.998;10.440;2022-10-16T15:27:10;10.50;;;5.63;;
32106;SDS011;18622;51.998;10.440;2022-10-16T15:29:37;3.13;;;1.20;;
32106;SDS011;18622;51.998;10.440;2022-10-16T15:32:05;10.70;;;6.70;;
32106;SDS011;18622;51.998;10.440;2022-10-16T15:34:33;6.17;;;3.47;;
32106;SDS011;18622;51.998;10.440;2022-10-16T15:37:06;2.93;;;1.97;;
32106;SDS011;18622;51.998;10.440;2022-10-16T15:39:30;2.58;;;1.57;;
32106;SDS011;18622;51.998;10.440;2022-10-16T15:41:58;7.00;;;4.47;;
32106;SDS011;18622;51.998;10.440;2022-10-16T15:44:26;7.33;;;2.73;;
32106;SDS011;18622;51.998;10.440;2022-10-16T15:46:55;5.53;;;2.80;;
32106;SDS011;18622;51.998;10.440;2022-10-16T15:49:29;11.10;;;2.83;;
32106;SDS011;18622;51.998;10.440;2022-10-16T15:51:58;16.13;;;3.57;;
32106;SDS011;18622;51.998;10.440;2022-10-16T15:54:25;8.33;;;4.03;;
32106;SDS011;18622;51.998;10.440;2022-10-16T15:56:53;18.73;;;11.03;;
32106;SDS011;18622;51.998;10.440;2022-10-16T15:59:21;51.57;;;24.50;;
32106;SDS011;18622;51.998;10.440;2022-10-16T16:01:50;34.03;;;18.70;;
32106;SDS011;18622;51.998;10.440;2022-10-16T16:04:17;5.87;;;3.70;;
32106;SDS011;18622;51.998;10.440;2022-10-16T16:06:45;10.20;;;3.70;;
32106;SDS011;18622;51.998;10.440;2022-10-16T16:09:13;6.17;;;2.27;;
32106;SDS011;18622;51.998;10.440;2022-10-16T16:11:41;7.65;;;1.10;;
32106;SDS011;18622;51.998;10.440;2022-10-16T16:14:10;7.20;;;0.80;;
32106;SDS011;18622;51.998;10.440;2022-10-16T16:16:41;3.87;;;0.93;;
32106;SDS011;18622;51.998;10.440;2022-10-16T16:19:09;3.42;;;0.88;;
32106;SDS011;18622;51.998;10.440;2022-10-16T16:21:37;6.00;;;0.60;;
32106;SDS011;18622;51.998;10.440;2022-10-16T16:24:05;6.80;;;0.67;;
32106;SDS011;18622;51.998;10.440;2022-10-16T16:26:33;4.15;;;0.80;;
32106;SDS011;18622;51.998;10.440;2022-10-16T16:29:03;2.70;;;0.80;;
32106;SDS011;18622;51.998;10.440;2022-10-16T16:31:32;6.30;;;1.12;;
32106;SDS011;18622;51.998;10.440;2022-10-16T16:34:00;8.10;;;0.65;;
32106;SDS011;18622;51.998;10.440;2022-10-16T16:36:28;5.87;;;0.70;;
32106;SDS011;18622;51.998;10.440;2022-10-16T16:38:57;6.73;;;1.00;;
32106;SDS011;18622;51.998;10.440;2022-10-16T16:41:26;2.23;;;0.80;;
32106;SDS011;18622;51.998;10.440;2022-10-16T16:43:56;11.60;;;1.07;;
32106;SDS011;18622;51.998;10.440;2022-10-16T16:46:29;3.20;;;0.83;;
32106;SDS011;18622;51.998;10.440;2022-10-16T16:51:26;3.83;;;1.15;;
32106;SDS011;18622;51.998;10.440;2022-10-16T16:53:54;1.67;;;0.60;;
32106;SDS011;18622;51.998;10.440;2022-10-16T16:56:22;2.60;;;0.80;;
32106;SDS011;18622;51.998;10.440;2022-10-16T16:58:52;2.50;;;0.80;;
32106;SDS011;18622;51.998;10.440;2022-10-16T17:01:27;1.72;;;0.80;;
32106;SDS011;18622;51.998;10.440;2022-10-16T17:03:56;3.80;;;1.90;;
32106;SDS011;18622;51.998;10.440;2022-10-16T17:06:26;2.80;;;0.82;;
32106;SDS011;18622;51.998;10.440;2022-10-16T17:08:58;4.83;;;0.90;;
32106;SDS011;18622;51.998;10.440;2022-10-16T17:11:28;3.45;;;1.22;;
32106;SDS011;18622;51.998;10.440;2022-10-16T17:13:57;5.07;;;1.63;;
32106;SDS011;18622;51.998;10.440;2022-10-16T17:18:54;5.80;;;1.15;;
32106;SDS011;18622;51.998;10.440;2022-10-16T17:21:22;6.07;;;0.90;;
32106;SDS011;18622;51.998;10.440;2022-10-16T17:23:51;10.85;;;1.67;;
32106;SDS011;18622;51.998;10.440;2022-10-16T17:26:19;2.83;;;1.00;;
32106;SDS011;18622;51.998;10.440;2022-10-16T17:28:50;1.23;;;0.70;;
32106;SDS011;18622;51.998;10.440;2022-10-16T17:31:21;3.77;;;1.10;;
32106;SDS011;18622;51.998;10.440;2022-10-16T17:33:51;1.95;;;0.70;;
32106;SDS011;18622;51.998;10.440;2022-10-16T17:36:19;7.43;;;0.70;;
32106;SDS011;18622;51.998;10.440;2022-10-16T17:38:47;6.58;;;1.98;;
32106;SDS011;18622;51.998;10.440;2022-10-16T17:41:22;4.87;;;2.60;;
32106;SDS011;18622;51.998;10.440;2022-10-16T17:43:51;23.30;;;10.17;;
32106;SDS011;18622;51.998;10.440;2022-10-16T17:46:19;12.82;;;4.78;;
32106;SDS011;18622;51.998;10.440;2022-10-16T17:48:49;1.57;;;1.05;;
32106;SDS011;18622;51.998;10.440;2022-10-16T17:51:25;3.47;;;0.80;;
32106;SDS011;18622;51.998;10.440;2022-10-16T17:53:56;3.33;;;0.60;;
32106;SDS011;18622;51.998;10.440;2022-10-16T17:56:27;10.70;;;0.98;;
32106;SDS011;18622;51.998;10.440;2022-10-16T17:58:56;1.47;;;0.70;;
32106;SDS011;18622;51.998;10.440;2022-10-16T18:01:26;3.90;;;1.72;;
32106;SDS011;18622;51.998;10.440;2022-10-16T18:03:57;5.37;;;1.22;;
32106;SDS011;18622;51.998;10.440;2022-10-16T18:06:27;3.00;;;1.95;;
32106;SDS011;18622;51.998;10.440;2022-10-16T18:08:55;1.43;;;1.20;;
32106;SDS011;18622;51.998;10.440;2022-10-16T18:11:24;13.05;;;2.98;;
32106;SDS011;18622;51.998;10.440;2022-10-16T18:13:54;3.72;;;0.65;;
32106;SDS011;18622;51.998;10.440;2022-10-16T18:16:23;5.45;;;0.80;;
32106;SDS011;18622;51.998;10.440;2022-10-16T18:18:52;6.08;;;0.70;;
32106;SDS011;18622;51.998;10.440;2022-10-16T18:21:24;10.27;;;0.97;;
32106;SDS011;18622;51.998;10.440;2022-10-16T18:23:56;2.53;;;0.90;;
32106;SDS011;18622;51.998;10.440;2022-10-16T18:26:26;4.53;;;0.70;;
32106;SDS011;18622;51.998;10.440;2022-10-16T18:28:54;4.40;;;0.78;;
32106;SDS011;18622;51.998;10.440;2022-10-16T18:31:24;4.67;;;0.78;;
32106;SDS011;18622;51.998;10.440;2022-10-16T18:33:52;4.35;;;1.07;;
32106;SDS011;18622;51.998;10.440;2022-10-16T18:36:21;1.25;;;0.60;;
32106;SDS011;18622;51.998;10.440;2022-10-16T18:38:51;8.53;;;1.25;;
32106;SDS011;18622;51.998;10.440;2022-10-16T18:41:19;4.90;;;1.87;;
32106;SDS011;18622;51.998;10.440;2022-10-16T18:43:47;5.13;;;1.30;;
32106;SDS011;18622;51.998;10.440;2022-10-16T18:46:16;6.17;;;0.90;;
32106;SDS011;18622;51.998;10.440;2022-10-16T18:48:48;3.20;;;0.72;;
32106;SDS011;18622;51.998;10.440;2022-10-16T18:51:33;2.87;;;1.05;;
32106;SDS011;18622;51.998;10.440;2022-10-16T18:54:03;3.37;;;2.17;;
32106;SDS011;18622;51.998;10.440;2022-10-16T18:56:42;3.37;;;0.95;;
32106;SDS011;18622;51.998;10.440;2022-10-16T18:59:09;2.63;;;0.53;;
32106;SDS011;18622;51.998;10.440;2022-10-16T19:01:38;3.03;;;1.13;;
32106;SDS011;18622;51.998;10.440;2022-10-16T19:04:13;8.33;;;2.90;;
32106;SDS011;18622;51.998;10.440;2022-10-16T19:06:40;9.60;;;1.67;;
32106;SDS011;18622;51.998;10.440;2022-10-16T19:09:09;3.98;;;0.78;;
32106;SDS011;18622;51.998;10.440;2022-10-16T19:11:38;7.03;;;0.80;;
32106;SDS011;18622;51.998;10.440;2022-10-16T19:14:06;5.33;;;0.60;;
32106;SDS011;18622;51.998;10.440;2022-10-16T19:16:34;1.82;;;0.60;;
32106;SDS011;18622;51.998;10.440;2022-10-16T19:19:04;2.65;;;0.78;;
32106;SDS011;18622;51.998;10.440;2022-10-16T19:21:34;2.77;;;1.10;;
32106;SDS011;18622;51.998;10.440;2022-10-16T19:24:05;2.80;;;1.20;;
32106;SDS011;18622;51.998;10.440;2022-10-16T19:26:34;6.87;;;1.15;;
32106;SDS011;18622;51.998;10.440;2022-10-16T19:29:04;6.17;;;0.53;;
32106;SDS011;18622;51.998;10.440;2022-10-16T19:31:32;2.98;;;0.72;;
32106;SDS011;18622;51.998;10.440;2022-10-16T19:34:01;5.70;;;0.97;;
32106;SDS011;18622;51.998;10.440;2022-10-16T19:36:31;1.72;;;0.70;;
32106;SDS011;18622;51.998;10.440;2022-10-16T19:39:02;3.02;;;0.70;;
32106;SDS011;18622;51.998;10.440;2022-10-16T19:41:31;5.50;;;1.30;;
32106;SDS011;18622;51.998;10.440;2022-10-16T19:44:05;6.85;;;2.98;;
32106;SDS011;18622;51.998;10.440;2022-10-16T19:46:29;6.15;;;2.55;;
32106;SDS011;18622;51.998;10.440;2022-10-16T19:49:02;4.07;;;1.10;;
32106;SDS011;18622;51.998;10.440;2022-10-16T19:51:32;5.33;;;0.87;;
32106;SDS011;18622;51.998;10.440;2022-10-16T19:54:01;4.62;;;0.78;;
32106;SDS011;18622;51.998;10.440;2022-10-16T19:56:31;4.65;;;1.30;;
32106;SDS011;18622;51.998;10.440;2022-10-16T19:59:00;5.58;;;0.85;;
32106;SDS011;18622;51.998;10.440;2022-10-16T20:01:29;5.17;;;1.15;;
32106;SDS011;18622;51.998;10.440;2022-10-16T20:03:58;5.20;;;1.25;;
32106;SDS011;18622;51.998;10.440;2022-10-16T20:06:26;5.85;;;0.80;;
32106;SDS011;18622;51.998;10.440;2022-10-16T20:08:54;7.60;;;1.20;;
32106;SDS011;18622;51.998;10.440;2022-10-16T20:11:30;6.27;;;0.90;;
32106;SDS011;18622;51.998;10.440;2022-10-16T20:13:54;1.22;;;0.47;;
32106;SDS011;18622;51.998;10.440;2022-10-16T20:16:23;8.03;;;0.60;;
32106;SDS011;18622;51.998;10.440;2022-10-16T20:18:52;3.70;;;1.43;;
32106;SDS011;18622;51.998;10.440;2022-10-16T20:21:21;3.27;;;0.80;;
32106;SDS011;18622;51.998;10.440;2022-10-16T20:23:53;5.23;;;0.50;;
32106;SDS011;18622;51.998;10.440;2022-10-16T20:26:22;8.70;;;1.02;;
32106;SDS011;18622;51.998;10.440;2022-10-16T20:28:51;11.18;;;0.88;;
32106;SDS011;18622;51.998;10.440;2022-10-16T20:31:21;4.07;;;0.50;;
32106;SDS011;18622;51.998;10.440;2022-10-16T20:33:50;7.45;;;0.60;;
32106;SDS011;18622;51.998;10.440;2022-10-16T20:36:20;1.15;;;0.50;;
32106;SDS011;18622;51.998;10.440;2022-10-16T20:38:50;1.45;;;0.50;;
32106;SDS011;18622;51.998;10.440;2022-10-16T20:41:18;6.33;;;0.50;;
32106;SDS011;18622;51.998;10.440;2022-10-16T20:43:46;4.80;;;0.40;;
32106;SDS011;18622;51.998;10.440;2022-10-16T20:46:17;3.33;;;0.68;;
32106;SDS011;18622;51.998;10.440;2022-10-16T20:48:46;4.12;;;0.50;;
32106;SDS011;18622;51.998;10.440;2022-10-16T20:51:27;2.00;;;0.40;;
32106;SDS011;18622;51.998;10.440;2022-10-16T20:53:57;2.43;;;0.30;;
32106;SDS011;18622;51.998;10.440;2022-10-16T20:56:27;1.57;;;0.60;;
32106;SDS011;18622;51.998;10.440;2022-10-16T20:58:56;5.62;;;0.78;;
32106;SDS011;18622;51.998;10.440;2022-10-16T21:01:25;1.20;;;0.60;;
32106;SDS011;18622;51.998;10.440;2022-10-16T21:06:22;6.08;;;0.70;;
32106;SDS011;18622;51.998;10.440;2022-10-16T21:08:51;3.67;;;0.55;;
32106;SDS011;18622;51.998;10.440;2022-10-16T21:11:24;7.10;;;0.63;;
32106;SDS011;18622;51.998;10.440;2022-10-16T21:13:52;9.43;;;0.60;;
32106;SDS011;18622;51.998;10.440;2022-10-16T21:16:21;2.70;;;0.50;;
32106;SDS011;18622;51.998;10.440;2022-10-16T21:18:50;1.42;;;0.40;;
32106;SDS011;18622;51.998;10.440;2022-10-16T21:21:22;3.17;;;0.42;;
32106;SDS011;18622;51.998;10.440;2022-10-16T21:23:51;5.93;;;0.70;;
32106;SDS011;18622;51.998;10.440;2022-10-16T21:26:20;5.30;;;0.70;;
32106;SDS011;18622;51.998;10.440;2022-10-16T21:28:50;2.08;;;0.90;;
32106;SDS011;18622;51.998;10.440;2022-10-16T21:31:25;1.17;;;0.70;;
32106;SDS011;18622;51.998;10.440;2022-10-16T21:33:53;5.23;;;0.90;;
32106;SDS011;18622;51.998;10.440;2022-10-16T21:36:22;2.77;;;0.70;;
32106;SDS011;18622;51.998;10.440;2022-10-16T21:38:51;7.45;;;1.00;;
32106;SDS011;18622;51.998;10.440;2022-10-16T21:41:20;1.80;;;0.70;;